createdAt,value
2018-09-10T00:02:11.841Z,6.33
2018-09-10T00:04:40.294Z,5.93
2018-09-10T00:07:08.703Z,5.97
2018-09-10T00:09:37.161Z,6.10
2018-09-10T00:12:05.669Z,6.10
2018-09-10T00:14:34.124Z,5.70
2018-09-10T00:17:02.905Z,5.77
2018-09-10T00:19:31.353Z,6.00
2018-09-10T00:21:59.765Z,6.00
2018-09-10T00:24:28.189Z,6.00
2018-09-10T00:26:56.581Z,6.10
2018-09-10T00:29:24.973Z,5.13
2018-09-10T00:31:54.100Z,5.77
2018-09-10T00:34:22.501Z,5.70
2018-09-10T00:36:51.065Z,5.70
2018-09-10T00:39:19.605Z,5.47
2018-09-10T00:41:48.054Z,5.67
2018-09-10T00:44:16.451Z,5.53
2018-09-10T00:46:44.909Z,5.20
2018-09-10T00:49:13.308Z,5.27
2018-09-10T00:51:41.773Z,4.87
2018-09-10T00:54:10.271Z,5.47
2018-09-10T00:56:38.921Z,5.40
2018-09-10T00:59:07.377Z,5.27
2018-09-10T01:01:35.798Z,5.63
2018-09-10T01:04:04.297Z,5.07
2018-09-10T01:06:33.806Z,5.33
2018-09-10T01:09:02.185Z,5.67
2018-09-10T01:11:30.593Z,5.50
2018-09-10T01:13:58.984Z,5.37
2018-09-10T01:16:27.407Z,5.33
2018-09-10T01:18:55.813Z,4.97
2018-09-10T01:21:24.593Z,4.93
2018-09-10T01:23:53.149Z,5.07
2018-09-10T01:26:21.593Z,5.40
2018-09-10T01:28:49.993Z,5.73
2018-09-10T01:31:18.390Z,5.07
2018-09-10T01:33:51.876Z,5.43
2018-09-10T01:36:20.321Z,5.20
2018-09-10T01:38:48.744Z,5.00
2018-09-10T01:41:17.140Z,5.30
2018-09-10T01:43:45.578Z,5.30
2018-09-10T01:46:13.974Z,5.23
2018-09-10T01:48:42.394Z,5.10
2018-09-10T01:51:10.905Z,5.70
2018-09-10T01:53:39.321Z,5.40
2018-09-10T01:56:07.697Z,5.47
2018-09-10T01:58:37.322Z,4.83
2018-09-10T02:01:05.733Z,5.97
2018-09-10T02:03:35.768Z,5.17
2018-09-10T02:06:04.170Z,5.80
2018-09-10T02:08:32.589Z,5.37
2018-09-10T02:11:01.266Z,5.00
2018-09-10T02:13:29.668Z,5.30
2018-09-10T02:15:58.045Z,5.33
2018-09-10T02:18:26.526Z,5.70
2018-09-10T02:20:54.904Z,5.70
2018-09-10T02:23:23.300Z,5.23
2018-09-10T02:25:51.758Z,5.33
2018-09-10T02:28:20.137Z,5.50
2018-09-10T02:30:48.569Z,5.30
2018-09-10T02:33:16.936Z,5.30
2018-09-10T02:35:46.040Z,5.77
2018-09-10T02:38:14.703Z,5.57
2018-09-10T02:40:43.113Z,5.30
2018-09-10T02:43:11.681Z,5.30
2018-09-10T02:45:40.166Z,5.43
2018-09-10T02:48:08.533Z,5.40
2018-09-10T02:50:36.958Z,5.10
2018-09-10T02:53:06.705Z,5.50
2018-09-10T02:55:35.302Z,5.20
2018-09-10T02:58:03.713Z,5.40
2018-09-10T03:00:32.125Z,5.23
2018-09-10T03:03:00.547Z,4.93
2018-09-10T03:05:28.953Z,5.40
2018-09-10T03:07:57.349Z,4.90
2018-09-10T03:10:26.212Z,5.63
2018-09-10T03:12:55.441Z,4.90
2018-09-10T03:15:25.842Z,5.23
2018-09-10T03:17:54.292Z,5.43
2018-09-10T03:20:22.869Z,4.77
2018-09-10T03:22:51.276Z,4.90
2018-09-10T03:25:19.669Z,5.37
2018-09-10T03:27:48.101Z,5.40
2018-09-10T03:30:16.489Z,4.90
2018-09-10T03:32:44.915Z,5.50
2018-09-10T03:35:13.299Z,5.30
2018-09-10T03:37:43.168Z,5.37
2018-09-10T03:40:11.545Z,5.30
2018-09-10T03:42:40.558Z,4.67
2018-09-10T03:45:08.963Z,4.90
2018-09-10T03:47:37.393Z,5.50
2018-09-10T03:50:05.850Z,4.83
2018-09-10T03:52:34.322Z,5.33
2018-09-10T03:55:02.743Z,5.50
2018-09-10T03:57:31.181Z,5.17
2018-09-10T04:00:01.276Z,5.37
2018-09-10T04:02:29.711Z,4.80
2018-09-10T04:04:58.174Z,5.63
2018-09-10T04:07:26.589Z,5.90
2018-09-10T04:09:55.009Z,5.50
2018-09-10T04:12:23.414Z,5.30
2018-09-10T04:14:51.840Z,5.87
2018-09-10T04:17:20.359Z,5.67
2018-09-10T04:19:48.761Z,5.40
2018-09-10T04:22:17.167Z,5.40
2018-09-10T04:24:45.737Z,5.60
2018-09-10T04:27:14.161Z,5.67
2018-09-10T04:29:42.715Z,5.63
2018-09-10T04:32:11.089Z,6.37
2018-09-10T04:34:39.632Z,5.00
2018-09-10T04:37:08.006Z,5.50
2018-09-10T04:39:36.413Z,5.07
2018-09-10T04:42:04.831Z,5.47
2018-09-10T04:44:34.332Z,5.83
2018-09-10T04:47:02.883Z,5.53
2018-09-10T04:49:31.337Z,6.00
2018-09-10T04:51:59.668Z,5.10
2018-09-10T04:54:29.151Z,5.60
2018-09-10T04:56:57.585Z,5.60
2018-09-10T04:59:26.657Z,5.67
2018-09-10T05:01:55.250Z,5.20
2018-09-10T05:04:23.807Z,5.80
2018-09-10T05:06:52.207Z,6.10
2018-09-10T05:09:20.874Z,6.33
2018-09-10T05:11:50.557Z,5.67
2018-09-10T05:14:19.152Z,6.03
2018-09-10T05:16:47.625Z,6.60
2018-09-10T05:19:16.013Z,5.27
2018-09-10T05:21:44.449Z,5.87
2018-09-10T05:24:12.813Z,6.10
2018-09-10T05:26:41.208Z,6.17
2018-09-10T05:29:09.608Z,5.80
2018-09-10T05:31:38.014Z,6.00
2018-09-10T05:34:07.745Z,6.33
2018-09-10T05:36:36.266Z,7.03
2018-09-10T05:39:06.938Z,6.80
2018-09-10T05:41:35.499Z,7.63
2018-09-10T05:44:03.884Z,6.00
2018-09-10T05:46:32.301Z,6.87
2018-09-10T05:49:01.975Z,7.20
2018-09-10T05:51:30.393Z,10.97
2018-09-10T05:53:58.870Z,8.93
2018-09-10T05:56:27.293Z,7.13
2018-09-10T05:58:57.334Z,7.23
2018-09-10T06:01:25.798Z,6.53
2018-09-10T06:03:54.209Z,7.20
2018-09-10T06:06:22.659Z,6.57
2018-09-10T06:08:51.983Z,6.70
2018-09-10T06:11:20.356Z,7.13
2018-09-10T06:13:48.761Z,7.00
2018-09-10T06:16:17.202Z,7.77
2018-09-10T06:18:45.593Z,5.90
2018-09-10T06:21:14.017Z,6.10
2018-09-10T06:23:42.453Z,5.67
2018-09-10T06:26:10.972Z,6.23
2018-09-10T06:28:39.874Z,6.10
2018-09-10T06:31:09.826Z,6.00
2018-09-10T06:33:38.303Z,6.37
2018-09-10T06:36:06.680Z,7.30
2018-09-10T06:38:35.119Z,6.73
2018-09-10T06:41:03.538Z,6.53
2018-09-10T06:43:31.977Z,6.97
2018-09-10T06:46:00.349Z,6.80
2018-09-10T06:48:28.881Z,6.63
2018-09-10T06:50:57.303Z,6.67
2018-09-10T06:53:25.720Z,6.20
2018-09-10T06:55:54.101Z,6.80
2018-09-10T06:58:22.538Z,6.13
2018-09-10T07:00:50.934Z,6.67
2018-09-10T07:03:19.672Z,6.53
2018-09-10T07:05:48.149Z,6.40
2018-09-10T07:08:16.862Z,6.80
2018-09-10T07:10:45.257Z,5.70
2018-09-10T07:13:13.730Z,6.40
2018-09-10T07:15:42.224Z,6.60
2018-09-10T07:18:10.701Z,6.03
2018-09-10T07:20:39.197Z,7.40
2018-09-10T07:23:07.588Z,6.00
2018-09-10T07:25:36.012Z,6.23
2018-09-10T07:28:04.408Z,6.00
2018-09-10T07:30:32.850Z,6.20
2018-09-10T07:33:01.986Z,6.87
2018-09-10T07:35:30.417Z,7.07
2018-09-10T07:37:58.935Z,6.67
2018-09-10T07:40:27.373Z,7.00
2018-09-10T07:42:55.781Z,6.13
2018-09-10T07:45:24.229Z,6.10
2018-09-10T07:47:52.982Z,6.70
2018-09-10T07:50:21.452Z,7.17
2018-09-10T07:52:49.794Z,6.57
2018-09-10T07:55:18.214Z,7.37
2018-09-10T07:57:46.704Z,6.80
2018-09-10T08:00:15.145Z,6.70
2018-09-10T08:02:43.517Z,6.33
2018-09-10T08:05:11.974Z,5.73
2018-09-10T08:07:41.301Z,5.43
2018-09-10T08:10:09.797Z,5.35
2018-09-10T08:12:38.325Z,5.30
2018-09-10T08:15:06.739Z,4.70
2018-09-10T08:17:35.200Z,5.17
2018-09-10T08:20:04.501Z,4.90
2018-09-10T08:22:33.108Z,5.70
2018-09-10T08:25:01.932Z,5.15
2018-09-10T08:27:30.348Z,5.28
2018-09-10T08:29:58.747Z,5.33
2018-09-10T08:32:27.239Z,5.08
2018-09-10T08:34:55.641Z,5.05
2018-09-10T08:37:24.094Z,5.37
2018-09-10T08:39:52.513Z,5.35
2018-09-10T08:42:20.925Z,5.53
2018-09-10T08:44:49.306Z,5.22
2018-09-10T08:47:17.781Z,4.90
2018-09-10T08:49:46.595Z,5.08
2018-09-10T08:52:15.101Z,6.33
2018-09-10T08:54:43.779Z,5.12
2018-09-10T08:57:11.995Z,5.53
2018-09-10T08:59:40.514Z,5.87
2018-09-10T09:02:15.285Z,5.15
2018-09-10T09:04:43.735Z,7.10
2018-09-10T09:07:12.170Z,5.70
2018-09-10T09:09:41.177Z,5.50
2018-09-10T09:12:09.552Z,6.08
2018-09-10T09:14:37.976Z,5.45
2018-09-10T09:17:06.398Z,5.42
2018-09-10T09:19:34.906Z,5.60
2018-09-10T09:22:03.571Z,6.00
2018-09-10T09:24:32.086Z,5.67
2018-09-10T09:27:00.473Z,5.70
2018-09-10T09:29:28.976Z,5.67
2018-09-10T09:31:57.366Z,5.47
2018-09-10T09:34:29.945Z,5.50
2018-09-10T09:37:03.590Z,5.55
2018-09-10T09:39:37.114Z,5.85
2018-09-10T09:42:10.850Z,4.90
2018-09-10T09:44:44.611Z,5.40
2018-09-10T09:47:12.989Z,5.22
2018-09-10T09:49:41.355Z,5.37
2018-09-10T09:52:09.766Z,5.20
2018-09-10T09:54:38.856Z,4.80
2018-09-10T09:57:07.373Z,5.55
2018-09-10T09:59:35.849Z,5.08
2018-09-10T10:02:24.558Z,5.55
2018-09-10T10:04:52.972Z,6.25
2018-09-10T10:07:21.396Z,5.15
2018-09-10T10:09:49.781Z,5.00
2018-09-10T10:12:18.302Z,5.28
2018-09-10T10:14:46.700Z,5.00
2018-09-10T10:17:15.571Z,5.30
2018-09-10T10:19:44.058Z,5.17
2018-09-10T10:22:12.614Z,4.62
2018-09-10T10:24:41.105Z,5.17
2018-09-10T10:27:09.535Z,5.47
2018-09-10T10:29:37.921Z,4.85
2018-09-10T10:32:06.689Z,5.30
2018-09-10T10:34:35.394Z,5.03
2018-09-10T10:37:03.817Z,4.67
2018-09-10T10:39:32.196Z,4.95
2018-09-10T10:42:00.674Z,4.60
2018-09-10T10:44:29.054Z,4.65
2018-09-10T10:46:57.513Z,4.87
2018-09-10T10:49:25.885Z,4.60
2018-09-10T10:51:54.289Z,4.47
2018-09-10T10:54:22.741Z,4.35
2018-09-10T10:56:51.149Z,4.20
2018-09-10T10:59:19.577Z,4.72
2018-09-10T11:01:47.981Z,4.03
2018-09-10T11:04:17.427Z,4.70
2018-09-10T11:06:45.813Z,5.40
2018-09-10T11:09:14.237Z,5.42
2018-09-10T11:11:42.600Z,5.35
2018-09-10T11:14:11.019Z,4.97
2018-09-10T11:16:39.421Z,4.53
2018-09-10T11:19:07.933Z,4.83
2018-09-10T11:21:36.304Z,4.50
2018-09-10T11:24:04.756Z,4.35
2018-09-10T11:26:33.166Z,4.40
2018-09-10T11:29:01.813Z,4.65
2018-09-10T11:31:30.197Z,4.20
2018-09-10T11:33:58.600Z,3.83
2018-09-10T11:36:27.006Z,4.28
2018-09-10T11:38:55.506Z,4.25
2018-09-10T11:41:23.913Z,4.47
2018-09-10T11:43:52.294Z,4.00
2018-09-10T11:46:20.749Z,4.33
2018-09-10T11:48:49.411Z,4.30
2018-09-10T11:51:17.857Z,4.67
2018-09-10T11:53:46.237Z,4.37
2018-09-10T11:56:14.649Z,5.15
2018-09-10T11:58:43.029Z,4.80
2018-09-10T12:01:11.454Z,4.25
2018-09-10T12:03:39.864Z,5.05
2018-09-10T12:06:08.280Z,5.30
2018-09-10T12:08:36.657Z,5.03
2018-09-10T12:11:05.132Z,4.95
2018-09-10T12:13:33.568Z,5.17
2018-09-10T12:16:02.041Z,4.78
2018-09-10T12:18:30.448Z,5.15
2018-09-10T12:20:58.862Z,4.90
2018-09-10T12:23:27.243Z,4.15
2018-09-10T12:25:56.548Z,4.60
2018-09-10T12:28:24.921Z,4.20
2018-09-10T12:30:53.348Z,4.20
2018-09-10T12:33:21.776Z,4.10
2018-09-10T12:35:50.161Z,3.90
2018-09-10T12:38:18.581Z,4.25
2018-09-10T12:40:46.979Z,3.90
2018-09-10T12:43:15.405Z,4.55
2018-09-10T12:45:43.780Z,4.00
2018-09-10T12:48:12.195Z,3.98
2018-09-10T12:50:41.413Z,3.35
2018-09-10T12:53:09.843Z,3.67
2018-09-10T12:55:38.293Z,3.90
2018-09-10T12:58:06.725Z,3.83
2018-09-10T13:00:35.153Z,3.65
2018-09-10T13:03:03.652Z,3.47
2018-09-10T13:05:32.125Z,3.33
2018-09-10T13:08:00.598Z,3.60
2018-09-10T13:10:29.039Z,3.62
2018-09-10T13:12:57.425Z,3.37
2018-09-10T13:15:25.813Z,3.37
2018-09-10T13:17:54.213Z,3.02
2018-09-10T13:20:22.605Z,3.08
2018-09-10T13:22:51.254Z,3.42
2018-09-10T13:25:19.665Z,3.20
2018-09-10T13:27:48.065Z,2.85
2018-09-10T13:30:16.536Z,3.10
2018-09-10T13:32:44.901Z,3.60
2018-09-10T13:35:13.334Z,3.50
2018-09-10T13:37:41.711Z,3.90
2018-09-10T13:40:10.410Z,4.03
2018-09-10T13:42:38.772Z,4.55
2018-09-10T13:45:07.212Z,3.98
2018-09-10T13:47:35.589Z,4.03
2018-09-10T13:50:04.053Z,3.92
2018-09-10T13:52:32.445Z,3.30
2018-09-10T13:55:00.881Z,3.80
2018-09-10T13:57:29.270Z,3.60
2018-09-10T13:59:57.697Z,3.92
2018-09-10T14:02:26.085Z,3.70
2018-09-10T14:04:54.581Z,3.98
2018-09-10T14:07:22.981Z,3.62
2018-09-10T14:09:51.417Z,3.50
2018-09-10T14:12:19.844Z,3.25
2018-09-10T14:14:48.270Z,3.15
2018-09-10T14:17:16.700Z,3.12
2018-09-10T14:19:45.150Z,4.55
2018-09-10T14:22:13.600Z,3.17
2018-09-10T14:24:41.985Z,3.42
2018-09-10T14:27:10.403Z,3.45
2018-09-10T14:29:38.804Z,3.72
2018-09-10T14:32:07.253Z,3.10
2018-09-10T14:34:35.671Z,3.72
2018-09-10T14:37:04.147Z,3.40
2018-09-10T14:39:32.545Z,3.85
2018-09-10T14:42:00.986Z,3.25
2018-09-10T14:44:29.381Z,3.55
2018-09-10T14:46:57.805Z,3.58
2018-09-10T14:49:26.213Z,3.33
2018-09-10T14:51:54.653Z,3.60
2018-09-10T14:54:23.033Z,3.00
2018-09-10T14:56:51.465Z,3.60
2018-09-10T14:59:19.855Z,3.22
2018-09-10T15:01:48.281Z,3.17
2018-09-10T15:04:16.742Z,3.35
2018-09-10T15:06:45.145Z,3.50
2018-09-10T15:09:13.540Z,3.47
2018-09-10T15:11:41.962Z,3.70
2018-09-10T15:14:10.374Z,3.30
2018-09-10T15:16:38.773Z,3.72
2018-09-10T15:19:07.313Z,3.40
2018-09-10T15:21:35.620Z,3.27
2018-09-10T15:24:04.053Z,3.08
2018-09-10T15:26:32.445Z,3.95
2018-09-10T15:29:00.854Z,3.27
2018-09-10T15:31:29.256Z,4.20
2018-09-10T15:33:57.694Z,4.20
2018-09-10T15:36:26.078Z,3.90
2018-09-10T15:38:54.481Z,3.80
2018-09-10T15:41:22.857Z,4.40
2018-09-10T15:43:51.273Z,3.90
2018-09-10T15:46:19.645Z,3.58
2018-09-10T15:48:48.097Z,3.45
2018-09-10T15:51:16.550Z,3.90
2018-09-10T15:53:44.949Z,3.80
2018-09-10T15:56:13.332Z,3.60
2018-09-10T15:58:48.521Z,3.92
2018-09-10T16:01:16.902Z,3.58
2018-09-10T16:03:45.416Z,3.83
2018-09-10T16:06:13.776Z,4.10
2018-09-10T16:08:42.182Z,3.90
2018-09-10T16:11:10.629Z,3.85
2018-09-10T16:13:40.280Z,3.92
2018-09-10T16:16:08.698Z,4.45
2018-09-10T16:18:37.118Z,3.75
2018-09-10T16:21:05.652Z,4.10
2018-09-10T16:23:34.044Z,3.30
2018-09-10T16:26:03.045Z,3.83
2018-09-10T16:28:31.510Z,3.80
2018-09-10T16:30:59.944Z,4.00
2018-09-10T16:33:28.331Z,3.83
2018-09-10T16:35:56.764Z,3.92
2018-09-10T16:38:25.173Z,3.60
2018-09-10T16:40:53.695Z,3.67
2018-09-10T16:43:22.042Z,4.35
2018-09-10T16:45:50.456Z,4.33
2018-09-10T16:48:18.852Z,3.55
2018-09-10T16:50:47.313Z,4.47
2018-09-10T16:53:15.706Z,4.08
2018-09-10T16:55:44.173Z,4.53
2018-09-10T16:58:12.533Z,5.03
2018-09-10T17:00:41.473Z,4.83
2018-09-10T17:03:09.808Z,4.37
2018-09-10T17:05:38.258Z,4.60
2018-09-10T17:08:06.693Z,4.87
2018-09-10T17:10:38.077Z,4.65
2018-09-10T17:13:06.546Z,5.00
2018-09-10T17:15:34.960Z,5.05
2018-09-10T17:18:03.776Z,4.90
2018-09-10T17:20:32.264Z,4.97
2018-09-10T17:23:00.795Z,4.75
2018-09-10T17:25:29.228Z,5.20
2018-09-10T17:27:57.697Z,4.25
2018-09-10T17:30:26.166Z,4.97
2018-09-10T17:32:54.601Z,5.40
2018-09-10T17:35:23.034Z,5.80
2018-09-10T17:37:51.454Z,5.00
2018-09-10T17:40:19.976Z,5.58
2018-09-10T17:42:48.415Z,5.42
2018-09-10T17:45:16.869Z,6.50
2018-09-10T17:47:45.600Z,7.03
2018-09-10T17:50:13.975Z,5.85
2018-09-10T17:52:42.487Z,5.10
2018-09-10T17:55:10.867Z,5.95
2018-09-10T17:57:39.301Z,5.37
2018-09-10T18:00:08.127Z,5.47
2018-09-10T18:02:37.102Z,5.87
2018-09-10T18:05:05.596Z,5.85
2018-09-10T18:07:34.081Z,5.72
2018-09-10T18:10:02.587Z,6.87
2018-09-10T18:12:30.969Z,5.92
2018-09-10T18:14:59.447Z,6.87
2018-09-10T18:17:27.851Z,6.03
2018-09-10T18:19:56.293Z,5.47
2018-09-10T18:22:24.716Z,6.05
2018-09-10T18:24:53.337Z,5.25
2018-09-10T18:27:21.680Z,6.40
2018-09-10T18:29:50.213Z,6.00
2018-09-10T18:32:18.661Z,6.60
2018-09-10T18:34:47.072Z,6.62
2018-09-10T18:37:15.532Z,6.75
2018-09-10T18:39:44.066Z,7.08
2018-09-10T18:42:12.509Z,5.97
2018-09-10T18:44:40.962Z,6.53
2018-09-10T18:47:09.574Z,6.75
2018-09-10T18:49:38.030Z,6.87
2018-09-10T18:52:06.467Z,6.72
2018-09-10T18:54:34.979Z,6.05
2018-09-10T18:57:03.745Z,6.37
2018-09-10T18:59:32.385Z,6.47
2018-09-10T19:02:00.802Z,5.58
2018-09-10T19:04:30.465Z,5.83
2018-09-10T19:06:58.866Z,6.20
2018-09-10T19:09:27.638Z,6.78
2018-09-10T19:11:56.098Z,6.40
2018-09-10T19:14:24.541Z,6.87
2018-09-10T19:16:52.962Z,5.58
2018-09-10T19:19:21.352Z,6.45
2018-09-10T19:21:50.043Z,5.20
2018-09-10T19:24:18.491Z,6.03
2018-09-10T19:26:46.940Z,6.85
2018-09-10T19:29:15.349Z,6.05
2018-09-10T19:31:43.806Z,5.53
2018-09-10T19:34:12.282Z,5.20
2018-09-10T19:36:40.758Z,6.00
2018-09-10T19:39:10.518Z,4.83
2018-09-10T19:41:39.092Z,5.35
2018-09-10T19:44:07.551Z,4.67
2018-09-10T19:46:35.929Z,5.12
2018-09-10T19:49:04.447Z,5.25
2018-09-10T19:51:32.979Z,5.03
2018-09-10T19:54:01.525Z,4.58
2018-09-10T19:56:29.929Z,5.00
2018-09-10T19:58:58.401Z,4.87
2018-09-10T20:01:26.861Z,4.85
2018-09-10T20:03:55.309Z,4.25
2018-09-10T20:06:23.745Z,4.22
2018-09-10T20:08:52.181Z,4.72
2018-09-10T20:11:20.574Z,3.98
2018-09-10T20:13:49.001Z,4.47
2018-09-10T20:16:17.400Z,4.40
2018-09-10T20:18:46.033Z,4.30
2018-09-10T20:21:14.777Z,4.00
2018-09-10T20:23:43.208Z,4.25
2018-09-10T20:26:11.621Z,5.20
2018-09-10T20:28:40.614Z,4.05
2018-09-10T20:31:09.145Z,4.33
2018-09-10T20:33:42.857Z,3.90
2018-09-10T20:36:11.293Z,3.77
2018-09-10T20:38:39.778Z,3.67
2018-09-10T20:41:08.175Z,4.40
2018-09-10T20:43:36.616Z,3.77
2018-09-10T20:46:05.077Z,3.95
2018-09-10T20:48:33.606Z,4.40
2018-09-10T20:51:02.026Z,4.10
2018-09-10T20:53:30.418Z,4.57
2018-09-10T20:55:58.866Z,4.80
2018-09-10T20:58:27.257Z,3.95
2018-09-10T21:00:55.701Z,4.33
2018-09-10T21:03:24.145Z,4.33
2018-09-10T21:05:52.637Z,4.45
2018-09-10T21:08:21.021Z,4.07
2018-09-10T21:10:49.473Z,4.50
2018-09-10T21:13:17.865Z,4.07
2018-09-10T21:15:46.277Z,3.40
2018-09-10T21:18:14.676Z,3.62
2018-09-10T21:20:43.104Z,4.00
2018-09-10T21:23:11.499Z,3.43
2018-09-10T21:25:39.998Z,3.93
2018-09-10T21:28:08.376Z,4.10
2018-09-10T21:30:37.118Z,4.30
2018-09-10T21:33:05.512Z,3.63
2018-09-10T21:35:33.906Z,3.90
2018-09-10T21:38:02.338Z,3.63
2018-09-10T21:40:30.802Z,3.90
2018-09-10T21:42:59.232Z,3.83
2018-09-10T21:45:27.626Z,3.87
2018-09-10T21:47:56.097Z,4.17
2018-09-10T21:50:24.532Z,3.90
2018-09-10T21:52:52.976Z,3.90
2018-09-10T21:55:21.383Z,3.83
2018-09-10T21:57:50.109Z,3.60
2018-09-10T22:00:18.573Z,5.57
2018-09-10T22:02:47.215Z,4.77
2018-09-10T22:05:15.677Z,4.50
2018-09-10T22:07:44.134Z,4.40
2018-09-10T22:10:12.732Z,3.60
2018-09-10T22:12:41.100Z,3.70
2018-09-10T22:15:09.485Z,3.97
2018-09-10T22:17:37.917Z,4.33
2018-09-10T22:20:06.425Z,4.00
2018-09-10T22:22:34.857Z,3.43
2018-09-10T22:25:03.689Z,3.83
2018-09-10T22:27:32.139Z,3.53
2018-09-10T22:30:00.541Z,3.40
2018-09-10T22:32:29.053Z,3.40
2018-09-10T22:34:57.437Z,3.97
2018-09-10T22:37:25.846Z,3.50
2018-09-10T22:39:54.291Z,4.23
2018-09-10T22:42:22.735Z,3.40
2018-09-10T22:44:51.146Z,4.30
2018-09-10T22:47:19.570Z,3.40
2018-09-10T22:49:48.013Z,3.70
2018-09-10T22:52:16.409Z,3.47
2018-09-10T22:54:44.943Z,3.70
2018-09-10T22:57:13.482Z,3.77
2018-09-10T22:59:42.015Z,3.33
2018-09-10T23:02:10.575Z,3.70
2018-09-10T23:04:39.385Z,3.53
2018-09-10T23:07:07.833Z,4.10
2018-09-10T23:09:36.269Z,3.90
2018-09-10T23:12:04.749Z,3.67
2018-09-10T23:14:33.175Z,3.40
2018-09-10T23:17:01.997Z,3.43
2018-09-10T23:19:30.428Z,4.00
2018-09-10T23:21:58.823Z,3.80
2018-09-10T23:24:27.282Z,4.03
2018-09-10T23:26:55.672Z,3.53
2018-09-10T23:29:24.137Z,3.47
2018-09-10T23:31:52.564Z,3.60
2018-09-10T23:34:20.954Z,3.40
2018-09-10T23:36:49.382Z,3.30
2018-09-10T23:39:17.770Z,3.77
2018-09-10T23:41:46.247Z,3.77
2018-09-10T23:44:14.629Z,3.93
2018-09-10T23:46:43.074Z,3.63
2018-09-10T23:49:11.506Z,3.37
2018-09-10T23:51:39.974Z,3.53
2018-09-10T23:54:08.389Z,3.77
2018-09-10T23:56:36.876Z,3.67
2018-09-10T23:59:06.337Z,3.70
